Impacts TAF Board INFO
FOR SITUATIONAL AWARENESS. NOT TO BE USED FOR FLIGHT PLANNING PURPOSES.
IDs:

KPHX - Phoenix/Sky Harbor, AZ, US

Issued at 2108 UTC 19 Jun 2018
Updated at 2157 UTC 19 Jun 2018
Potential Impact None Slight Moderate High
Time2151Z 19/22Z 19/23Z 20/00Z 20/01Z 20/02Z 20/03Z 20/04Z 20/05Z 20/06Z 20/07Z 20/08Z 20/09Z 20/10Z>>
Type OBS PRVL PRVL PRVL PRVL PRVL PRVL PRVL PRVL PRVL PRVL PRVL PRVL PRVL
VIS 10 >6 >6 >6 >6 >6 >6 >6 >6 >6 >6 >6 >6 >6
CIG -- -- -- -- -- -- -- -- -- -- -- -- -- --
Cover CLR SKC SKC SKC SKC SKC SKC SKC SKC SKC SKC SKC SKC SKC
FltCat VFR VFR VFR VFR VFR VFR VFR VFR VFR VFR VFR VFR VFR VFR
WX -- -- -- -- -- -- -- -- -- -- -- -- -- --
WDir 240 260 260 260 260 260 260 260 260 260 260 260 90 90
WSpd 6 8 8 8 8 8 8 8 8 8 8 8 5 5
WGst 14 -- -- -- -- -- -- -- -- -- -- -- -- --

Raw TAF
KPHX 192108Z 1921/2024 26008KT P6SM SKC
  FM200900 09005KT P6SM SKC
  FM202100 27008KT P6SM SKC


Raw METAR
KPHX 192151Z 24006G14KT 10SM CLR 38/00 A2980 RMK AO2 SLP068 T03780000 $
KPHX 192051Z 26009KT 10SM CLR 38/00 A2981 RMK AO2 SLP073 T03830000 58017 $
KPHX 191951Z VRB03KT 10SM FEW250 38/02 A2983 RMK AO2 SLP079 T03780017 $
KPHX 191851Z VRB05KT 10SM CLR 35/01 A2985 RMK AO2 SLP087 T03500011 $

METAR Board
Radar Display
Forecast Discussion

FOR SITUATIONAL AWARENESS. NOT TO BE USED FOR FLIGHT PLANNING PURPOSES.